Time;durP1;ratioP1;P1;durP2;ratioP2;P2;SDS_P1;SDS_P2;PMS_P1;PMS_P2;Temp;Humidity;BMP_temperature;BMP_pressure;BME280_temperature;BME280_humidity;BME280_pressure;Samples;Min_cycle;Max_cycle;Signal;HPM_P1;HPM_P2
2022/06/24 00:00:23;;;;;;;;;;;;;;;;;;2082427;28;20438;-47
2022/06/24 00:01:24;;;;;;;;;;;;;;;;;;2082265;28;19932;-48
2022/06/24 00:02:25;;;;;;;;;;;;;;;;;;2082544;28;20333;-47
2022/06/24 00:03:26;;;;;;;;;;;;;;;;;;2082246;28;19979;-47
2022/06/24 00:04:28;;;;;;;;;;;;;;;;;;2082424;28;19921;-47
2022/06/24 00:05:29;;;;;;;;;;;;;;;;;;2082401;28;19928;-47
2022/06/24 00:06:30;;;;;;;;;;;;;;;;;;2082165;28;19928;-47
2022/06/24 00:07:31;;;;;;;;;;;;;;;;;;2082090;28;19929;-47
2022/06/24 00:08:32;;;;;;;;;;;;;;;;;;2082246;28;20505;-47
2022/06/24 00:09:33;;;;;;;;;;;;;;;;;;2082319;28;20008;-48
2022/06/24 00:10:34;;;;;;;;;;;;;;;;;;2082375;28;19924;-47
2022/06/24 00:11:34;;;;;;;;;;;;;;;;;;2082189;28;20015;-47
2022/06/24 00:12:35;;;;;;;;;;;;;;;;;;2082177;28;19987;-47
2022/06/24 00:13:36;;;;;;;;;;;;;;;;;;2082251;28;19928;-48
2022/06/24 00:14:37;;;;;;;;;;;;;;;;;;2082296;28;19971;-47
2022/06/24 00:15:43;;;;;;;;;;;;;;;;;;2082377;28;19928;-47
2022/06/24 00:16:44;;;;;;;;;;;;;;;;;;2082247;28;19921;-48
2022/06/24 00:17:45;;;;;;;;;;;;;;;;;;2082357;28;19921;-48
2022/06/24 00:18:46;;;;;;;;;;;;;;;;;;2082146;28;19971;-47
2022/06/24 00:19:47;;;;;;;;;;;;;;;;;;2082369;28;19956;-47
2022/06/24 00:20:48;;;;;;;;;;;;;;;;;;2082061;28;20004;-47
2022/06/24 00:21:49;;;;;;;;;;;;;;;;;;2082217;28;19971;-47
2022/06/24 00:22:50;;;;;;;;;;;;;;;;;;2082568;28;19921;-47
2022/06/24 00:23:51;;;;;;;;;;;;;;;;;;2082153;28;19924;-47
2022/06/24 00:24:52;;;;;;;;;;;;;;;;;;2082223;28;19928;-47
2022/06/24 00:25:52;;;;;;;;;;;;;;;;;;2082158;28;20015;-47
2022/06/24 00:26:53;;;;;;;;;;;;;;;;;;2082368;28;19953;-47
2022/06/24 00:27:54;;;;;;;;;;;;;;;;;;2082159;28;20411;-48
2022/06/24 00:28:55;;;;;;;;;;;;;;;;;;2082316;28;19927;-48
2022/06/24 00:29:56;;;;;;;;;;;;;;;;;;2082223;28;19921;-48
2022/06/24 00:30:57;;;;;;;;;;;;;;;;;;2082132;28;20371;-47
2022/06/24 00:31:58;;;;;;;;;;;;;;;;;;2081395;28;19920;-47
2022/06/24 00:32:58;;;;;;;;;;;;;;;;;;2081638;28;20440;-47
2022/06/24 00:33:59;;;;;;;;;;;;;;;;;;2082213;28;19925;-48
2022/06/24 00:35:00;;;;;;;;;;;;;;;;;;2082135;28;20282;-47
2022/06/24 00:36:01;;;;;;;;;;;;;;;;;;2082062;28;20129;-47
2022/06/24 00:37:02;;;;;;;;;;;;;;;;;;2082003;28;20067;-47
2022/06/24 00:38:03;;;;;;;;;;;;;;;;;;2082088;28;19994;-48
2022/06/24 00:39:04;;;;;;;;;;;;;;;;;;2082166;28;19925;-48
2022/06/24 00:40:04;;;;;;;;;;;;;;;;;;2082095;28;20000;-48
2022/06/24 00:41:05;;;;;;;;;;;;;;;;;;2082164;28;19928;-47
2022/06/24 00:42:06;;;;;;;;;;;;;;;;;;2082071;28;19921;-47
2022/06/24 00:43:07;;;;;;;;;;;;;;;;;;2081972;28;19921;-48
2022/06/24 00:44:08;;;;;;;;;;;;;;;;;;2081997;28;20024;-48
2022/06/24 00:45:09;;;;;;;;;;;;;;;;;;2082324;28;20011;-48
2022/06/24 00:46:10;;;;;;;;;;;;;;;;;;2081907;28;20012;-48
2022/06/24 00:47:11;;;;;;;;;;;;;;;;;;2082247;28;19940;-48
2022/06/24 00:48:12;;;;;;;;;;;;;;;;;;2082141;28;19928;-48
2022/06/24 00:49:13;;;;;;;;;;;;;;;;;;2081983;28;19921;-47
2022/06/24 00:50:14;;;;;;;;;;;;;;;;;;2082331;28;19944;-45
2022/06/24 00:51:15;;;;;;;;;;;;;;;;;;2082091;28;20396;-44
2022/06/24 00:52:16;;;;;;;;;;;;;;;;;;2082009;28;20325;-47
2022/06/24 00:53:17;;;;;;;;;;;;;;;;;;2082197;28;19964;-47
2022/06/24 00:54:17;;;;;;;;;;;;;;;;;;2082041;28;19928;-45
2022/06/24 00:55:19;;;;;;;;;;;;;;;;;;2081881;28;19927;-46
2022/06/24 00:56:19;;;;;;;;;;;;;;;;;;2082064;28;20019;-46
2022/06/24 00:57:20;;;;;;;;;;;;;;;;;;2082196;28;19944;-46
2022/06/24 00:58:21;;;;;;;;;;;;;;;;;;2082007;28;19928;-45
2022/06/24 00:59:23;;;;;;;;;;;;;;;;;;2081974;28;20058;-45
2022/06/24 01:00:24;;;;;;;;;;;;;;;;;;2082145;28;20003;-46
2022/06/24 01:01:25;;;;;;;;;;;;;;;;;;2081792;28;20362;-46
2022/06/24 01:02:26;;;;;;;;;;;;;;;;;;2082019;28;19925;-45
2022/06/24 01:03:27;;;;;;;;;;;;;;;;;;2082107;28;19924;-46
2022/06/24 01:04:28;;;;;;;;;;;;;;;;;;2081766;28;19921;-45
2022/06/24 01:05:29;;;;;;;;;;;;;;;;;;2082049;28;20248;-45
2022/06/24 01:06:29;;;;;;;;;;;;;;;;;;2081809;28;20415;-46
2022/06/24 01:07:31;;;;;;;;;;;;;;;;;;2081890;28;19932;-47
2022/06/24 01:08:32;;;;;;;;;;;;;;;;;;2081943;28;19921;-45
2022/06/24 01:09:32;;;;;;;;;;;;;;;;;;2082145;28;19982;-46
2022/06/24 01:10:33;;;;;;;;;;;;;;;;;;2081871;28;19922;-44
2022/06/24 01:11:34;;;;;;;;;;;;;;;;;;2082061;28;20023;-48
2022/06/24 01:12:35;;;;;;;;;;;;;;;;;;2081833;28;20283;-49
2022/06/24 01:13:37;;;;;;;;;;;;;;;;;;2081798;28;19921;-49
2022/06/24 01:14:38;;;;;;;;;;;;;;;;;;2081905;28;20016;-47
2022/06/24 01:15:43;;;;;;;;;;;;;;;;;;2082080;28;20108;-46
2022/06/24 01:16:44;;;;;;;;;;;;;;;;;;2081928;28;19931;-45
2022/06/24 01:17:45;;;;;;;;;;;;;;;;;;2081869;28;19964;-45
2022/06/24 01:18:46;;;;;;;;;;;;;;;;;;2082037;28;19921;-45
2022/06/24 01:19:47;;;;;;;;;;;;;;;;;;2081898;28;19948;-44
2022/06/24 01:20:48;;;;;;;;;;;;;;;;;;2081791;28;20283;-45
2022/06/24 01:21:48;;;;;;;;;;;;;;;;;;2082024;28;20012;-44
2022/06/24 01:22:49;;;;;;;;;;;;;;;;;;2082063;28;19925;-44
2022/06/24 01:23:50;;;;;;;;;;;;;;;;;;2081891;28;20337;-45
2022/06/24 01:24:51;;;;;;;;;;;;;;;;;;2081938;28;20011;-46
2022/06/24 01:25:52;;;;;;;;;;;;;;;;;;2081847;28;20011;-45
2022/06/24 01:26:53;;;;;;;;;;;;;;;;;;2081801;28;20268;-44
2022/06/24 01:27:54;;;;;;;;;;;;;;;;;;2082025;28;19932;-46
2022/06/24 01:28:55;;;;;;;;;;;;;;;;;;2081731;28;20063;-46
2022/06/24 01:29:55;;;;;;;;;;;;;;;;;;2081798;28;20392;-47
2022/06/24 01:30:56;;;;;;;;;;;;;;;;;;2081748;28;19921;-47
2022/06/24 01:31:57;;;;;;;;;;;;;;;;;;2081645;28;19921;-48
2022/06/24 01:32:58;;;;;;;;;;;;;;;;;;2081858;28;19966;-48
2022/06/24 01:33:59;;;;;;;;;;;;;;;;;;2081740;28;19925;-48
2022/06/24 01:35:00;;;;;;;;;;;;;;;;;;2081710;28;19924;-48
2022/06/24 01:36:01;;;;;;;;;;;;;;;;;;2081625;28;19924;-48
2022/06/24 01:37:02;;;;;;;;;;;;;;;;;;2081878;28;20033;-48
2022/06/24 01:38:03;;;;;;;;;;;;;;;;;;2081548;28;20020;-47
2022/06/24 01:39:03;;;;;;;;;;;;;;;;;;2081860;28;19921;-49
2022/06/24 01:40:04;;;;;;;;;;;;;;;;;;2081673;28;20433;-48
2022/06/24 01:41:05;;;;;;;;;;;;;;;;;;2081755;28;19971;-47
2022/06/24 01:42:06;;;;;;;;;;;;;;;;;;2081801;28;19921;-46
2022/06/24 01:43:07;;;;;;;;;;;;;;;;;;2081706;28;19987;-47
2022/06/24 01:44:08;;;;;;;;;;;;;;;;;;2081434;28;20457;-47
2022/06/24 01:45:09;;;;;;;;;;;;;;;;;;2081949;28;19921;-46
2022/06/24 01:46:11;;;;;;;;;;;;;;;;;;2081574;28;20008;-47
2022/06/24 01:47:12;;;;;;;;;;;;;;;;;;2081600;28;19928;-46
2022/06/24 01:48:13;;;;;;;;;;;;;;;;;;2081787;28;19927;-47
2022/06/24 01:49:13;;;;;;;;;;;;;;;;;;2081720;28;19928;-47
2022/06/24 01:50:14;;;;;;;;;;;;;;;;;;2081745;28;20351;-48
2022/06/24 01:51:15;;;;;;;;;;;;;;;;;;2081594;28;19921;-48
2022/06/24 01:52:16;;;;;;;;;;;;;;;;;;2081688;28;19921;-47
2022/06/24 01:53:17;;;;;;;;;;;;;;;;;;2081661;28;19925;-47
2022/06/24 01:54:18;;;;;;;;;;;;;;;;;;2081753;28;19921;-47
2022/06/24 01:55:19;;;;;;;;;;;;;;;;;;2081531;28;20445;-46
2022/06/24 01:56:20;;;;;;;;;;;;;;;;;;2081891;28;19921;-45
2022/06/24 01:57:20;;;;;;;;;;;;;;;;;;2081765;28;19921;-45
2022/06/24 01:58:21;;;;;;;;;;;;;;;;;;2081675;28;20026;-45
2022/06/24 01:59:22;;;;;;;;;;;;;;;;;;2081672;28;19921;-44
2022/06/24 02:00:23;;;;;;;;;;;;;;;;;;2084842;28;20290;-44
2022/06/24 02:01:24;;;;;;;;;;;;;;;;;;2081657;28;19925;-44
2022/06/24 02:02:26;;;;;;;;;;;;;;;;;;2081491;28;19921;-45
2022/06/24 02:03:27;;;;;;;;;;;;;;;;;;2081715;28;19928;-43
2022/06/24 02:04:28;;;;;;;;;;;;;;;;;;2081643;28;20011;-46
2022/06/24 02:05:29;;;;;;;;;;;;;;;;;;2081673;28;19975;-46
2022/06/24 02:06:29;;;;;;;;;;;;;;;;;;2082500;28;19928;-45
2022/06/24 02:07:30;;;;;;;;;;;;;;;;;;2098024;28;20007;-45
2022/06/24 02:08:31;;;;;;;;;;;;;;;;;;2098013;28;19931;-45
2022/06/24 02:13:26;;;;;;;;;;;;;;;;;;2098213;28;19927;-44
2022/06/24 02:13:32;;;;;;;;;;;;;;;;;;2081485;28;20016;-47
2022/06/24 02:14:33;;;;;;;;;;;;;;;;;;2081590;28;19999;-46
2022/06/24 02:15:34;;;;;;;;;;;;;;;;;;2081768;28;19963;-45
2022/06/24 02:16:34;;;;;;;;;;;;;;;;;;2081418;28;19936;-45
2022/06/24 02:17:35;;;;;;;;;;;;;;;;;;2081776;28;19948;-47
2022/06/24 02:18:36;;;;;;;;;;;;;;;;;;2081465;28;20020;-47
2022/06/24 02:19:37;;;;;;;;;;;;;;;;;;2081615;28;19921;-47
2022/06/24 02:20:38;;;;;;;;;;;;;;;;;;2081683;28;19921;-47
2022/06/24 02:21:45;;;;;;;;;;;;;;;;;;2086602;28;20141;-47
2022/06/24 02:22:45;;;;;;;;;;;;;;;;;;2097978;28;19938;-47
2022/06/24 02:23:46;;;;;;;;;;;;;;;;;;2097922;28;19924;-48
2022/06/24 02:24:47;;;;;;;;;;;;;;;;;;2098045;28;19920;-48
2022/06/24 02:25:48;;;;;;;;;;;;;;;;;;2097840;28;19927;-47
2022/06/24 02:26:49;;;;;;;;;;;;;;;;;;2098135;28;19929;-45
2022/06/24 02:27:50;;;;;;;;;;;;;;;;;;2097958;28;20003;-45
2022/06/24 02:28:51;;;;;;;;;;;;;;;;;;2098086;28;20011;-44
2022/06/24 02:29:51;;;;;;;;;;;;;;;;;;2098159;28;19924;-45
2022/06/24 02:30:53;;;;;;;;;;;;;;;;;;2097850;28;19920;-44
2022/06/24 02:31:53;;;;;;;;;;;;;;;;;;2097906;28;20392;-45
2022/06/24 02:32:54;;;;;;;;;;;;;;;;;;2097921;28;19931;-45
2022/06/24 02:33:55;;;;;;;;;;;;;;;;;;2097854;28;20011;-44
2022/06/24 02:34:56;;;;;;;;;;;;;;;;;;2098153;28;20358;-44
2022/06/24 02:35:57;;;;;;;;;;;;;;;;;;2097681;28;19920;-44
2022/06/24 02:36:58;;;;;;;;;;;;;;;;;;2098077;28;20369;-48
2022/06/24 02:37:59;;;;;;;;;;;;;;;;;;2098123;28;19928;-44
2022/06/24 02:39:00;;;;;;;;;;;;;;;;;;2097800;28;20491;-44
2022/06/24 02:40:45;;;;;;;;;;;;;;;;;;2098117;28;20022;-44
2022/06/24 02:41:21;;;;;;;;;;;;;;;;;;2097836;28;19920;-44
2022/06/24 02:42:22;;;;;;;;;;;;;;;;;;2097922;28;19974;-44
2022/06/24 02:43:24;;;;;;;;;;;;;;;;;;2097855;28;20012;-47
2022/06/24 02:44:25;;;;;;;;;;;;;;;;;;2097923;28;20003;-45
2022/06/24 02:45:26;;;;;;;;;;;;;;;;;;2097786;28;19954;-44
2022/06/24 02:46:26;;;;;;;;;;;;;;;;;;2097857;28;20289;-45
2022/06/24 02:47:27;;;;;;;;;;;;;;;;;;2098096;28;19928;-47
2022/06/24 02:48:28;;;;;;;;;;;;;;;;;;2097729;28;20033;-47
2022/06/24 02:49:29;;;;;;;;;;;;;;;;;;2097885;28;19920;-47
2022/06/24 02:50:30;;;;;;;;;;;;;;;;;;2097844;28;20231;-46
2022/06/24 02:51:31;;;;;;;;;;;;;;;;;;2097850;28;19920;-47
2022/06/24 02:52:32;;;;;;;;;;;;;;;;;;2098009;28;19927;-47
2022/06/24 02:53:33;;;;;;;;;;;;;;;;;;2098169;28;19921;-47
2022/06/24 02:54:34;;;;;;;;;;;;;;;;;;2097821;28;19924;-47
2022/06/24 02:55:35;;;;;;;;;;;;;;;;;;2098252;28;19950;-47
2022/06/24 02:56:36;;;;;;;;;;;;;;;;;;2092128;28;19921;-48
2022/06/24 02:57:40;;;;;;;;;;;;;;;;;;2083078;28;19931;-46
2022/06/24 02:58:40;;;;;;;;;;;;;;;;;;2082703;28;20012;-47
2022/06/24 02:59:41;;;;;;;;;;;;;;;;;;2082937;28;19920;-47
2022/06/24 03:00:42;;;;;;;;;;;;;;;;;;2082669;28;20027;-47
2022/06/24 03:01:43;;;;;;;;;;;;;;;;;;2082786;28;19921;-47
2022/06/24 03:02:44;;;;;;;;;;;;;;;;;;2083019;28;20016;-47
2022/06/24 03:03:46;;;;;;;;;;;;;;;;;;2082582;28;19967;-48
2022/06/24 03:04:46;;;;;;;;;;;;;;;;;;2083074;28;19921;-44
2022/06/24 03:05:47;;;;;;;;;;;;;;;;;;2082776;28;19921;-44
2022/06/24 03:06:48;;;;;;;;;;;;;;;;;;2082961;28;19921;-47
2022/06/24 03:07:49;;;;;;;;;;;;;;;;;;2082894;28;19921;-47
2022/06/24 03:08:50;;;;;;;;;;;;;;;;;;2082847;28;19928;-47
2022/06/24 03:09:51;;;;;;;;;;;;;;;;;;2082600;28;20412;-47
2022/06/24 03:10:52;;;;;;;;;;;;;;;;;;2082572;28;19924;-48
2022/06/24 03:11:53;;;;;;;;;;;;;;;;;;2090695;28;20357;-47
2022/06/24 03:12:54;;;;;;;;;;;;;;;;;;2090875;28;20362;-47
2022/06/24 03:13:55;;;;;;;;;;;;;;;;;;2090912;28;19925;-47
2022/06/24 03:14:56;;;;;;;;;;;;;;;;;;2090860;28;20038;-46
2022/06/24 03:15:57;;;;;;;;;;;;;;;;;;2090926;28;19920;-48
2022/06/24 03:16:57;;;;;;;;;;;;;;;;;;2090898;28;19959;-47
2022/06/24 03:17:58;;;;;;;;;;;;;;;;;;2090815;28;20022;-47
2022/06/24 03:18:59;;;;;;;;;;;;;;;;;;2090731;28;19946;-47
2022/06/24 03:20:00;;;;;;;;;;;;;;;;;;2090991;28;19947;-43
2022/06/24 03:21:01;;;;;;;;;;;;;;;;;;2091064;28;19924;-48
2022/06/24 03:22:02;;;;;;;;;;;;;;;;;;2090948;28;20328;-46
2022/06/24 03:23:02;;;;;;;;;;;;;;;;;;2090855;28;20389;-47
2022/06/24 03:24:03;;;;;;;;;;;;;;;;;;2091021;28;19966;-43
2022/06/24 03:25:04;;;;;;;;;;;;;;;;;;2090990;28;19924;-44
2022/06/24 03:26:05;;;;;;;;;;;;;;;;;;2090986;28;19927;-47
2022/06/24 03:27:06;;;;;;;;;;;;;;;;;;2090964;28;19955;-47
2022/06/24 03:28:07;;;;;;;;;;;;;;;;;;2090862;28;19967;-47
2022/06/24 03:29:08;;;;;;;;;;;;;;;;;;2091101;28;20287;-46
2022/06/24 03:30:09;;;;;;;;;;;;;;;;;;2090794;28;19921;-47
2022/06/24 03:31:09;;;;;;;;;;;;;;;;;;2090696;28;20275;-48
2022/06/24 03:32:10;;;;;;;;;;;;;;;;;;2091222;28;19920;-43
2022/06/24 03:33:11;;;;;;;;;;;;;;;;;;2090760;28;20302;-44
2022/06/24 03:34:12;;;;;;;;;;;;;;;;;;2090821;28;20004;-43
2022/06/24 03:35:13;;;;;;;;;;;;;;;;;;2090906;28;19928;-43
2022/06/24 03:36:14;;;;;;;;;;;;;;;;;;2091031;28;20003;-48
2022/06/24 03:37:15;;;;;;;;;;;;;;;;;;2091313;28;20009;-44
2022/06/24 03:38:15;;;;;;;;;;;;;;;;;;2090768;28;20293;-44
2022/06/24 03:39:16;;;;;;;;;;;;;;;;;;2090982;28;19952;-47
2022/06/24 03:40:17;;;;;;;;;;;;;;;;;;2090714;28;20028;-48
2022/06/24 03:41:18;;;;;;;;;;;;;;;;;;2090605;28;19927;-47
2022/06/24 03:42:19;;;;;;;;;;;;;;;;;;2090813;28;19921;-47
2022/06/24 03:43:20;;;;;;;;;;;;;;;;;;2090932;28;19929;-43
2022/06/24 03:44:21;;;;;;;;;;;;;;;;;;2091029;28;20015;-43
2022/06/24 03:45:22;;;;;;;;;;;;;;;;;;2091008;28;19943;-47
2022/06/24 03:46:22;;;;;;;;;;;;;;;;;;2090711;28;19982;-47
2022/06/24 03:47:23;;;;;;;;;;;;;;;;;;2090700;28;19928;-47
2022/06/24 03:48:24;;;;;;;;;;;;;;;;;;2090643;28;19925;-46
2022/06/24 03:49:25;;;;;;;;;;;;;;;;;;2091192;28;19929;-43
2022/06/24 03:50:26;;;;;;;;;;;;;;;;;;2090702;28;20047;-43
2022/06/24 03:51:27;;;;;;;;;;;;;;;;;;2090613;28;20411;-44
2022/06/24 03:52:28;;;;;;;;;;;;;;;;;;2090175;28;19921;-43
2022/06/24 03:53:31;;;;;;;;;;;;;;;;;;2082473;28;19921;-44
2022/06/24 03:54:31;;;;;;;;;;;;;;;;;;2082514;28;20019;-43
2022/06/24 03:55:33;;;;;;;;;;;;;;;;;;2082606;28;19921;-47
2022/06/24 03:56:33;;;;;;;;;;;;;;;;;;2082305;28;20003;-47
2022/06/24 03:57:34;;;;;;;;;;;;;;;;;;2082335;28;19925;-47
2022/06/24 03:58:35;;;;;;;;;;;;;;;;;;2082409;28;19925;-49
2022/06/24 03:59:36;;;;;;;;;;;;;;;;;;2082598;28;20298;-43
2022/06/24 04:00:37;;;;;;;;;;;;;;;;;;2082613;28;19928;-47
2022/06/24 04:01:38;;;;;;;;;;;;;;;;;;2082310;28;19928;-47
2022/06/24 04:02:40;;;;;;;;;;;;;;;;;;2082928;28;19928;-47
2022/06/24 04:03:46;;;;;;;;;;;;;;;;;;2082360;28;20318;-46
2022/06/24 04:04:47;;;;;;;;;;;;;;;;;;2082411;28;19921;-47
2022/06/24 04:05:48;;;;;;;;;;;;;;;;;;2082365;28;19921;-46
2022/06/24 04:06:48;;;;;;;;;;;;;;;;;;2082146;28;20051;-47
2022/06/24 04:07:50;;;;;;;;;;;;;;;;;;2082544;28;19971;-47
2022/06/24 04:08:52;;;;;;;;;;;;;;;;;;2082396;28;20082;-47
2022/06/24 04:09:53;;;;;;;;;;;;;;;;;;2082422;28;20008;-48
2022/06/24 04:10:54;;;;;;;;;;;;;;;;;;2082075;28;19960;-47
2022/06/24 04:11:55;;;;;;;;;;;;;;;;;;2082458;28;19925;-46
2022/06/24 04:12:56;;;;;;;;;;;;;;;;;;2082182;28;19965;-46
2022/06/24 04:13:57;;;;;;;;;;;;;;;;;;2082342;28;19921;-47
2022/06/24 04:15:17;;;;;;;;;;;;;;;;;;2082262;28;19921;-47
2022/06/24 04:16:18;;;;;;;;;;;;;;;;;;2082284;28;20518;-43
2022/06/24 04:17:19;;;;;;;;;;;;;;;;;;2082839;28;20059;-47
2022/06/24 04:18:20;;;;;;;;;;;;;;;;;;2082287;28;19921;-46
2022/06/24 04:19:21;;;;;;;;;;;;;;;;;;2082167;28;19921;-47
2022/06/24 04:20:22;;;;;;;;;;;;;;;;;;2082147;28;19921;-46
2022/06/24 04:21:23;;;;;;;;;;;;;;;;;;2082204;28;20408;-47
2022/06/24 04:22:24;;;;;;;;;;;;;;;;;;2082359;28;19975;-43
2022/06/24 04:23:24;;;;;;;;;;;;;;;;;;2082321;28;20012;-44
2022/06/24 04:24:25;;;;;;;;;;;;;;;;;;2082265;28;19978;-43
2022/06/24 04:25:26;;;;;;;;;;;;;;;;;;2082257;28;19928;-43
2022/06/24 04:26:27;;;;;;;;;;;;;;;;;;2082174;28;20015;-43
2022/06/24 04:27:28;;;;;;;;;;;;;;;;;;2082404;28;20309;-46
2022/06/24 04:28:29;;;;;;;;;;;;;;;;;;2082628;28;19921;-47
2022/06/24 04:29:30;;;;;;;;;;;;;;;;;;2082345;28;20018;-47
2022/06/24 04:30:30;;;;;;;;;;;;;;;;;;2082412;28;19983;-48
2022/06/24 04:31:31;;;;;;;;;;;;;;;;;;2082046;28;19921;-47
2022/06/24 04:32:32;;;;;;;;;;;;;;;;;;2082502;28;19928;-47
2022/06/24 04:33:35;;;;;;;;;;;;;;;;;;2082349;28;20386;-48
2022/06/24 04:34:36;;;;;;;;;;;;;;;;;;2082645;28;20098;-43
2022/06/24 04:35:37;;;;;;;;;;;;;;;;;;2082206;28;20021;-43
2022/06/24 04:36:38;;;;;;;;;;;;;;;;;;2082229;28;20011;-43
2022/06/24 04:37:39;;;;;;;;;;;;;;;;;;2082013;28;19928;-43
2022/06/24 04:38:40;;;;;;;;;;;;;;;;;;2082251;28;20375;-47
2022/06/24 04:39:45;;;;;;;;;;;;;;;;;;2082161;28;20015;-48
2022/06/24 04:40:46;;;;;;;;;;;;;;;;;;2082151;28;19928;-47
2022/06/24 04:41:47;;;;;;;;;;;;;;;;;;2082255;28;20271;-47
2022/06/24 04:42:48;;;;;;;;;;;;;;;;;;2082062;28;19920;-47
2022/06/24 04:43:48;;;;;;;;;;;;;;;;;;2082019;28;19921;-46
2022/06/24 04:44:51;;;;;;;;;;;;;;;;;;2082260;28;20012;-49
2022/06/24 04:45:52;;;;;;;;;;;;;;;;;;2082139;28;19921;-42
2022/06/24 04:46:54;;;;;;;;;;;;;;;;;;2081999;28;19928;-42
2022/06/24 04:47:54;;;;;;;;;;;;;;;;;;2082185;28;19925;-43
2022/06/24 04:48:55;;;;;;;;;;;;;;;;;;2081875;28;19966;-43
2022/06/24 04:49:56;;;;;;;;;;;;;;;;;;2081846;28;20455;-43
2022/06/24 04:50:57;;;;;;;;;;;;;;;;;;2082061;28;19947;-43
2022/06/24 04:51:58;;;;;;;;;;;;;;;;;;2082105;28;19999;-43
2022/06/24 04:53:00;;;;;;;;;;;;;;;;;;2082058;28;19921;-44
2022/06/24 04:54:00;;;;;;;;;;;;;;;;;;2081989;28;19921;-44
2022/06/24 04:55:01;;;;;;;;;;;;;;;;;;2082140;28;20171;-45
2022/06/24 04:56:02;;;;;;;;;;;;;;;;;;2082141;28;20004;-42
2022/06/24 04:57:03;;;;;;;;;;;;;;;;;;2082111;28;19921;-42
2022/06/24 04:58:04;;;;;;;;;;;;;;;;;;2082193;28;19932;-47
2022/06/24 04:59:05;;;;;;;;;;;;;;;;;;2081977;28;20441;-48
2022/06/24 05:00:05;;;;;;;;;;;;;;;;;;2082044;28;19921;-47
2022/06/24 05:01:06;;;;;;;;;;;;;;;;;;2082108;28;19979;-44
2022/06/24 05:02:07;;;;;;;;;;;;;;;;;;2081919;28;19972;-43
2022/06/24 05:03:09;;;;;;;;;;;;;;;;;;2082504;28;20000;-43
2022/06/24 05:04:10;;;;;;;;;;;;;;;;;;2082302;28;20003;-44
2022/06/24 05:05:11;;;;;;;;;;;;;;;;;;2082335;28;20267;-48
2022/06/24 05:06:12;;;;;;;;;;;;;;;;;;2082223;28;19921;-44
2022/06/24 05:07:13;;;;;;;;;;;;;;;;;;2081930;28;19927;-43
2022/06/24 05:08:14;;;;;;;;;;;;;;;;;;2082053;28;20412;-44
2022/06/24 05:09:15;;;;;;;;;;;;;;;;;;2081982;28;19925;-45
2022/06/24 05:10:16;;;;;;;;;;;;;;;;;;2081896;28;19967;-42
2022/06/24 05:11:17;;;;;;;;;;;;;;;;;;2081743;28;19928;-48
2022/06/24 05:12:18;;;;;;;;;;;;;;;;;;2082135;28;20008;-46
2022/06/24 05:13:18;;;;;;;;;;;;;;;;;;2082380;28;19921;-48
2022/06/24 05:14:19;;;;;;;;;;;;;;;;;;2081976;28;19921;-49
2022/06/24 05:15:20;;;;;;;;;;;;;;;;;;2081870;28;20009;-48
2022/06/24 05:16:21;;;;;;;;;;;;;;;;;;2081832;28;19952;-52
2022/06/24 05:17:38;;;;;;;;;;;;;;;;;;2081831;28;20286;-48
2022/06/24 05:18:39;;;;;;;;;;;;;;;;;;2081354;28;19975;-46
2022/06/24 05:19:40;;;;;;;;;;;;;;;;;;2081972;28;19932;-47
2022/06/24 05:20:41;;;;;;;;;;;;;;;;;;2082048;28;19949;-43
2022/06/24 05:21:42;;;;;;;;;;;;;;;;;;2081778;28;20369;-43
2022/06/24 05:22:43;;;;;;;;;;;;;;;;;;2081886;28;19921;-43
2022/06/24 05:23:44;;;;;;;;;;;;;;;;;;2082425;28;19972;-44
2022/06/24 05:24:45;;;;;;;;;;;;;;;;;;2081768;28;20291;-44
2022/06/24 05:25:46;;;;;;;;;;;;;;;;;;2081893;28;19967;-44
2022/06/24 05:26:47;;;;;;;;;;;;;;;;;;2081763;28;19979;-43
2022/06/24 05:27:47;;;;;;;;;;;;;;;;;;2081785;28;20004;-43
2022/06/24 05:28:48;;;;;;;;;;;;;;;;;;2081979;28;20394;-45
2022/06/24 05:29:49;;;;;;;;;;;;;;;;;;2082064;28;20003;-48
2022/06/24 05:30:50;;;;;;;;;;;;;;;;;;2081731;28;19921;-48
2022/06/24 05:31:51;;;;;;;;;;;;;;;;;;2081784;28;19921;-50
2022/06/24 05:32:52;;;;;;;;;;;;;;;;;;2081970;28;19928;-49
2022/06/24 05:33:53;;;;;;;;;;;;;;;;;;2082333;28;19928;-49
2022/06/24 05:34:54;;;;;;;;;;;;;;;;;;2081895;28;20007;-50
2022/06/24 05:35:55;;;;;;;;;;;;;;;;;;2081609;28;20517;-47
2022/06/24 05:36:56;;;;;;;;;;;;;;;;;;2081897;28;20008;-50
2022/06/24 05:37:58;;;;;;;;;;;;;;;;;;2082259;28;19960;-43
2022/06/24 05:38:59;;;;;;;;;;;;;;;;;;2082023;28;20004;-49
2022/06/24 05:40:00;;;;;;;;;;;;;;;;;;2081730;28;20357;-49
2022/06/24 05:41:01;;;;;;;;;;;;;;;;;;2081885;28;20011;-48
2022/06/24 05:42:02;;;;;;;;;;;;;;;;;;2081993;28;19960;-48
2022/06/24 05:43:03;;;;;;;;;;;;;;;;;;2081776;28;20008;-48
2022/06/24 05:44:04;;;;;;;;;;;;;;;;;;2081694;28;19967;-49
2022/06/24 05:45:04;;;;;;;;;;;;;;;;;;2081657;28;19929;-48
2022/06/24 05:46:05;;;;;;;;;;;;;;;;;;2081694;28;20324;-49
2022/06/24 05:47:06;;;;;;;;;;;;;;;;;;2081654;28;19921;-48
2022/06/24 05:48:07;;;;;;;;;;;;;;;;;;2081752;28;19920;-44
2022/06/24 05:49:08;;;;;;;;;;;;;;;;;;2081660;28;20000;-43
2022/06/24 05:50:09;;;;;;;;;;;;;;;;;;2081767;28;19943;-44
2022/06/24 05:51:10;;;;;;;;;;;;;;;;;;2081953;28;20020;-48
2022/06/24 05:52:11;;;;;;;;;;;;;;;;;;2081691;28;19924;-49
2022/06/24 05:55:50;;;;;;;;;;;;;;;;;;2081735;28;20012;-48
2022/06/24 05:56:51;;;;;;;;;;;;;;;;;;2081535;28;20113;-49
2022/06/24 05:57:52;;;;;;;;;;;;;;;;;;2081951;28;19925;-43
2022/06/24 05:58:53;;;;;;;;;;;;;;;;;;2081562;28;20000;-44
2022/06/24 05:59:54;;;;;;;;;;;;;;;;;;2081795;28;19987;-44
2022/06/24 06:00:55;;;;;;;;;;;;;;;;;;2081938;28;19932;-44
2022/06/24 06:01:56;;;;;;;;;;;;;;;;;;2082083;28;19921;-43
2022/06/24 06:02:57;;;;;;;;;;;;;;;;;;2081603;28;19944;-45
2022/06/24 06:03:58;;;;;;;;;;;;;;;;;;2082426;28;19921;-44
2022/06/24 06:04:59;;;;;;;;;;;;;;;;;;2081678;28;19928;-44
2022/06/24 06:06:00;;;;;;;;;;;;;;;;;;2081620;28;20293;-43
2022/06/24 06:07:02;;;;;;;;;;;;;;;;;;2081569;28;20430;-44
2022/06/24 06:08:03;;;;;;;;;;;;;;;;;;2081671;28;19925;-44
2022/06/24 06:09:04;;;;;;;;;;;;;;;;;;2082005;28;19991;-49
2022/06/24 06:10:05;;;;;;;;;;;;;;;;;;2081469;28;20458;-48
2022/06/24 06:11:06;;;;;;;;;;;;;;;;;;2081588;28;20335;-43
2022/06/24 06:12:07;;;;;;;;;;;;;;;;;;2081838;28;19989;-44
2022/06/24 06:13:08;;;;;;;;;;;;;;;;;;2081606;28;19964;-44
2022/06/24 06:14:09;;;;;;;;;;;;;;;;;;2081664;28;19921;-49
2022/06/24 06:15:09;;;;;;;;;;;;;;;;;;2081617;28;19925;-49
2022/06/24 06:16:10;;;;;;;;;;;;;;;;;;2081542;28;19939;-50
2022/06/24 06:17:11;;;;;;;;;;;;;;;;;;2081856;28;20351;-42
2022/06/24 06:18:12;;;;;;;;;;;;;;;;;;2081470;28;19928;-43
2022/06/24 06:19:13;;;;;;;;;;;;;;;;;;2081473;28;19945;-42
2022/06/24 06:20:14;;;;;;;;;;;;;;;;;;2081672;28;19925;-44
2022/06/24 06:21:15;;;;;;;;;;;;;;;;;;2081524;28;19921;-48
2022/06/24 06:22:16;;;;;;;;;;;;;;;;;;2081497;28;20007;-48
2022/06/24 06:23:17;;;;;;;;;;;;;;;;;;2081645;28;19921;-44
2022/06/24 06:24:18;;;;;;;;;;;;;;;;;;2081568;28;19921;-45
2022/06/24 06:25:18;;;;;;;;;;;;;;;;;;2081556;28;20366;-43
2022/06/24 06:26:19;;;;;;;;;;;;;;;;;;2081956;28;19929;-44
2022/06/24 06:27:20;;;;;;;;;;;;;;;;;;2081750;28;19921;-46
2022/06/24 06:28:21;;;;;;;;;;;;;;;;;;2082408;28;19944;-49
2022/06/24 06:29:22;;;;;;;;;;;;;;;;;;2081733;28;20015;-44
2022/06/24 06:30:23;;;;;;;;;;;;;;;;;;2081528;28;19921;-44
2022/06/24 06:31:24;;;;;;;;;;;;;;;;;;2081754;28;19921;-44
2022/06/24 06:32:25;;;;;;;;;;;;;;;;;;2081434;28;19979;-44
2022/06/24 06:33:28;;;;;;;;;;;;;;;;;;2081664;28;19921;-49
2022/06/24 06:34:29;;;;;;;;;;;;;;;;;;2081406;28;20002;-51
2022/06/24 06:35:30;;;;;;;;;;;;;;;;;;2081517;28;19967;-50
2022/06/24 06:36:30;;;;;;;;;;;;;;;;;;2081509;28;19921;-48
2022/06/24 06:37:31;;;;;;;;;;;;;;;;;;2081421;28;19940;-49
2022/06/24 06:38:32;;;;;;;;;;;;;;;;;;2081736;28;20483;-49
2022/06/24 06:39:33;;;;;;;;;;;;;;;;;;2081317;28;20021;-48
2022/06/24 06:40:34;;;;;;;;;;;;;;;;;;2081505;28;20004;-50
2022/06/24 06:41:35;;;;;;;;;;;;;;;;;;2084608;28;19925;-43
2022/06/24 06:42:36;;;;;;;;;;;;;;;;;;2081892;28;19931;-44
2022/06/24 06:43:38;;;;;;;;;;;;;;;;;;2081302;28;20393;-43
2022/06/24 06:44:38;;;;;;;;;;;;;;;;;;2081427;28;20027;-44
2022/06/24 06:45:39;;;;;;;;;;;;;;;;;;2081592;28;19960;-44
2022/06/24 06:46:40;;;;;;;;;;;;;;;;;;2081606;28;20496;-49
2022/06/24 06:47:41;;;;;;;;;;;;;;;;;;2081691;28;19925;-46
2022/06/24 06:48:42;;;;;;;;;;;;;;;;;;2081221;28;19936;-44
2022/06/24 06:49:43;;;;;;;;;;;;;;;;;;2081523;28;19921;-43
2022/06/24 06:50:44;;;;;;;;;;;;;;;;;;2081363;28;19921;-45
2022/06/24 06:51:45;;;;;;;;;;;;;;;;;;2081360;28;19947;-44
2022/06/24 06:52:46;;;;;;;;;;;;;;;;;;2081354;28;20008;-45
2022/06/24 06:53:47;;;;;;;;;;;;;;;;;;2081285;28;19972;-44
2022/06/24 06:54:47;;;;;;;;;;;;;;;;;;2081445;28;20494;-44
2022/06/24 06:55:48;;;;;;;;;;;;;;;;;;2081729;28;19928;-44
2022/06/24 06:56:49;;;;;;;;;;;;;;;;;;2081245;28;19928;-46
2022/06/24 06:57:51;;;;;;;;;;;;;;;;;;2081384;28;19999;-50
2022/06/24 06:58:52;;;;;;;;;;;;;;;;;;2081320;28;20025;-47
2022/06/24 06:59:53;;;;;;;;;;;;;;;;;;2081733;28;20012;-45
2022/06/24 07:00:54;;;;;;;;;;;;;;;;;;2081535;28;20016;-46
2022/06/24 07:01:56;;;;;;;;;;;;;;;;;;2081341;28;19971;-51
2022/06/24 07:02:57;;;;;;;;;;;;;;;;;;2082391;28;19921;-45